Time;durP1;ratioP1;P1;durP2;ratioP2;P2;SDS_P1;SDS_P2;PMS_P1;PMS_P2;Temp;Humidity;BMP_temperature;BMP_pressure;BME280_temperature;BME280_humidity;BME280_pressure;Samples;Min_cycle;Max_cycle;Signal;HPM_P1;HPM_P2
2023/07/03 00:01:23;;;;;;;7.53;2.47;;;;;;;15.49;78.34;100378.13;5015962;28;20450;-72
2023/07/03 00:03:51;;;;;;;8.17;3.03;;;;;;;15.46;78.74;100368.69;5016089;28;20895;-72
2023/07/03 00:06:18;;;;;;;7.00;2.43;;;;;;;15.42;78.74;100367.78;5016391;28;20502;-72
2023/07/03 00:08:45;;;;;;;25.53;4.03;;;;;;;15.37;78.30;100384.38;5016316;28;20504;-72
2023/07/03 00:11:11;;;;;;;7.87;2.60;;;;;;;15.34;78.79;100374.91;5016405;28;20443;-72
2023/07/03 00:13:38;;;;;;;8.63;3.23;;;;;;;15.29;79.76;100369.69;5016007;28;20448;-72
2023/07/03 00:16:05;;;;;;;8.60;2.83;;;;;;;15.34;79.75;100382.31;5015975;28;20946;-72
2023/07/03 00:18:34;;;;;;;6.77;2.63;;;;;;;15.31;79.44;100369.31;5015895;28;20535;-72
2023/07/03 00:21:01;;;;;;;12.17;3.40;;;;;;;15.22;80.20;100374.88;5016247;28;20805;-72
2023/07/03 00:23:27;;;;;;;7.00;2.13;;;;;;;15.27;79.17;100369.22;5015768;28;20448;-72
2023/07/03 00:25:54;;;;;;;8.70;2.97;;;;;;;15.25;79.56;100365.22;5015763;28;20483;-72
2023/07/03 00:28:20;;;;;;;8.87;3.00;;;;;;;15.23;79.38;100371.03;5015706;28;20498;-72
2023/07/03 00:30:47;;;;;;;8.90;3.00;;;;;;;15.08;80.36;100364.28;5015746;28;20439;-72
2023/07/03 00:33:14;;;;;;;9.37;2.80;;;;;;;15.08;80.63;100368.94;5015670;28;20534;-72
2023/07/03 00:35:42;;;;;;;7.90;2.60;;;;;;;15.07;81.25;100365.41;5015938;28;20530;-72
2023/07/03 00:38:08;;;;;;;12.90;3.63;;;;;;;15.13;81.27;100363.25;5015773;28;20460;-72
2023/07/03 00:40:35;;;;;;;9.47;3.10;;;;;;;14.98;81.74;100366.63;5015852;28;20495;-72
2023/07/03 00:43:02;;;;;;;11.90;2.80;;;;;;;14.89;82.11;100356.59;5015752;28;20767;-71
2023/07/03 00:45:28;;;;;;;10.20;2.90;;;;;;;14.95;82.54;100356.38;5015294;28;21045;-71
2023/07/03 00:47:55;;;;;;;7.20;2.80;;;;;;;14.97;81.72;100340.50;5015575;28;20440;-72
2023/07/03 00:50:22;;;;;;;14.93;2.90;;;;;;;14.99;78.42;100351.84;5015354;28;20969;-72
2023/07/03 00:52:57;;;;;;;8.47;2.43;;;;;;;14.91;79.27;100347.28;5015271;28;20451;-72
2023/07/03 00:55:23;;;;;;;10.63;3.30;;;;;;;14.84;77.94;100345.91;5015564;28;20428;-72
2023/07/03 00:57:51;;;;;;;13.97;3.20;;;;;;;14.78;77.06;100349.16;5015443;28;20450;-72
2023/07/03 01:00:18;;;;;;;8.07;3.20;;;;;;;14.75;77.77;100345.19;5015385;28;20436;-72
2023/07/03 01:02:49;;;;;;;11.00;3.40;;;;;;;14.72;77.95;100343.13;5015377;28;20494;-72
2023/07/03 01:05:20;;;;;;;6.90;2.40;;;;;;;14.72;79.61;100337.69;5015325;28;20471;-72
2023/07/03 01:07:47;;;;;;;8.17;2.73;;;;;;;14.78;80.80;100338.25;5014933;28;20500;-72
2023/07/03 01:10:19;;;;;;;8.43;2.70;;;;;;;14.86;80.10;100334.66;5015242;28;20440;-72
2023/07/03 01:12:48;;;;;;;9.27;2.57;;;;;;;14.98;79.63;100331.19;5014489;28;20431;-72
2023/07/03 01:15:25;;;;;;;7.90;2.80;;;;;;;15.07;80.22;100335.41;5015181;28;20447;-72
2023/07/03 01:17:54;;;;;;;9.63;3.17;;;;;;;15.20;81.51;100332.72;5014978;28;20524;-72
2023/07/03 01:20:24;;;;;;;9.27;3.07;;;;;;;15.28;81.09;100329.88;5015049;28;20471;-72
2023/07/03 01:22:57;;;;;;;8.23;3.00;;;;;;;15.36;81.68;100326.25;5014670;28;20970;-72
2023/07/03 01:25:26;;;;;;;11.03;3.53;;;;;;;15.45;81.95;100337.06;5014934;28;20559;-72
2023/07/03 01:27:54;;;;;;;10.60;2.90;;;;;;;15.48;82.16;100333.66;5014642;28;20436;-72
2023/07/03 01:30:22;;;;;;;10.93;3.27;;;;;;;15.55;77.76;100330.38;5014843;28;20850;-72
2023/07/03 01:32:52;;;;;;;9.80;2.73;;;;;;;15.60;78.84;100330.94;5014762;28;20871;-72
2023/07/03 01:35:20;;;;;;;9.27;3.00;;;;;;;15.70;77.20;100331.66;5014887;28;20535;-72
2023/07/03 01:37:51;;;;;;;7.20;2.90;;;;;;;15.78;75.33;100331.53;5014726;28;20451;-72
2023/07/03 01:40:23;;;;;;;7.73;2.57;;;;;;;15.83;74.38;100323.09;5014414;28;20432;-72
2023/07/03 01:42:51;;;;;;;7.73;2.90;;;;;;;15.89;75.71;100326.38;5014644;28;20527;-72
2023/07/03 01:45:18;;;;;;;7.20;2.67;;;;;;;15.97;76.80;100327.41;5014539;28;20542;-72
2023/07/03 01:47:45;;;;;;;10.70;2.97;;;;;;;16.01;74.12;100318.19;5014528;28;20444;-72
2023/07/03 01:50:16;;;;;;;8.60;2.33;;;;;;;16.07;73.00;100321.47;5014167;28;20460;-72
2023/07/03 01:52:47;;;;;;;7.67;3.10;;;;;;;16.14;73.65;100321.69;5014504;28;20435;-72
2023/07/03 01:55:25;;;;;;;8.63;3.23;;;;;;;16.18;72.47;100316.34;5014186;28;20864;-72
2023/07/03 01:58:01;;;;;;;8.57;3.00;;;;;;;16.17;75.08;100321.00;5014328;28;20482;-72
2023/07/03 02:00:35;;;;;;;10.90;3.07;;;;;;;16.21;77.62;100326.59;5014324;28;20435;-72
2023/07/03 02:03:06;;;;;;;10.00;3.37;;;;;;;16.25;76.38;100311.09;5014384;28;20436;-72
2023/07/03 02:05:38;;;;;;;11.87;3.20;;;;;;;16.27;74.39;100314.25;5014579;28;20472;-72
2023/07/03 02:08:06;;;;;;;8.77;2.70;;;;;;;16.28;72.69;100313.13;5014275;28;20442;-72
2023/07/03 02:10:33;;;;;;;8.27;2.63;;;;;;;16.30;74.60;100313.59;5014201;28;20475;-71
2023/07/03 02:13:01;;;;;;;7.33;3.20;;;;;;;16.31;73.43;100315.97;5014191;28;20531;-72
2023/07/03 02:15:28;;;;;;;13.13;3.30;;;;;;;16.30;74.29;100317.09;5014334;28;20443;-72
2023/07/03 02:17:55;;;;;;;12.20;4.77;;;;;;;16.28;72.67;100316.63;5014048;28;20479;-75
2023/07/03 02:20:22;;;;;;;9.30;4.00;;;;;;;16.30;71.98;100319.03;5014256;28;20455;-74
2023/07/03 02:22:48;;;;;;;9.87;3.30;;;;;;;16.31;72.54;100321.44;5013938;28;20862;-73
2023/07/03 02:25:16;;;;;;;21.30;3.60;;;;;;;16.33;72.04;100312.88;5013757;28;20587;-71
2023/07/03 02:27:43;;;;;;;13.57;3.50;;;;;;;16.28;72.43;100324.84;5013878;28;20531;-72
2023/07/03 02:30:13;;;;;;;13.03;2.43;;;;;;;16.30;71.57;100325.31;5013634;28;20476;-72
2023/07/03 02:32:41;;;;;;;10.40;3.50;;;;;;;16.30;72.28;100308.91;5013859;28;20535;-72
2023/07/03 02:35:09;;;;;;;20.63;4.50;;;;;;;16.38;74.35;100315.38;5013816;28;20435;-72
2023/07/03 02:37:36;;;;;;;8.47;3.17;;;;;;;16.36;74.07;100321.19;5013984;28;20468;-72
2023/07/03 02:40:05;;;;;;;11.40;2.83;;;;;;;16.44;72.56;100319.47;5013882;28;20543;-72
2023/07/03 02:42:31;;;;;;;9.73;3.40;;;;;;;16.45;75.10;100318.31;5013359;28;20450;-72
2023/07/03 02:44:59;;;;;;;11.93;3.33;;;;;;;16.46;74.23;100316.38;5013580;28;20487;-72
2023/07/03 02:47:27;;;;;;;10.80;3.53;;;;;;;16.47;72.49;100323.41;5013560;28;20474;-72
2023/07/03 02:49:54;;;;;;;6.83;2.60;;;;;;;16.48;75.37;100308.63;5013556;28;20459;-72
2023/07/03 02:52:20;;;;;;;9.30;3.10;;;;;;;16.50;74.27;100314.53;5013466;28;20532;-72
2023/07/03 02:54:47;;;;;;;13.73;3.30;;;;;;;16.50;72.03;100309.84;5013526;28;20827;-72
2023/07/03 02:57:13;;;;;;;7.27;2.87;;;;;;;16.49;71.58;100316.47;5013507;28;20447;-72
2023/07/03 02:59:40;;;;;;;6.67;2.23;;;;;;;16.50;72.30;100311.78;5013111;28;20554;-72
2023/07/03 03:02:07;;;;;;;6.93;2.43;;;;;;;16.44;73.42;100311.25;5013413;28;20447;-72
2023/07/03 03:04:35;;;;;;;9.40;3.10;;;;;;;16.46;72.25;100302.69;5013267;28;20492;-72
2023/07/03 03:07:01;;;;;;;6.90;2.53;;;;;;;16.50;73.72;100309.06;5013181;28;20479;-72
2023/07/03 03:09:28;;;;;;;7.57;2.90;;;;;;;16.48;71.58;100309.41;5013275;28;20492;-72
2023/07/03 03:11:54;;;;;;;7.87;2.33;;;;;;;16.48;73.97;100308.63;5013019;28;21030;-72
2023/07/03 03:14:21;;;;;;;9.97;2.27;;;;;;;16.49;73.27;100302.00;5013315;28;20450;-72
2023/07/03 03:16:48;;;;;;;8.53;3.27;;;;;;;16.45;74.70;100298.38;5013032;28;20981;-73
2023/07/03 03:19:14;;;;;;;9.80;3.30;;;;;;;16.50;73.67;100300.84;5013151;28;20474;-73
2023/07/03 03:21:42;;;;;;;10.00;2.70;;;;;;;16.51;74.14;100302.44;5012948;28;20978;-73
2023/07/03 03:24:09;;;;;;;7.60;2.73;;;;;;;16.60;76.26;100308.56;5013220;28;20448;-72
2023/07/03 03:26:35;;;;;;;9.90;3.47;;;;;;;16.61;77.37;100305.50;5013090;28;20491;-73
2023/07/03 03:29:02;;;;;;;16.00;2.43;;;;;;;16.65;76.76;100300.13;5012819;28;20495;-72
2023/07/03 03:31:29;;;;;;;6.07;2.30;;;;;;;16.64;76.03;100301.25;5013445;28;20462;-72
2023/07/03 03:33:55;;;;;;;7.57;2.77;;;;;;;16.69;76.83;100300.19;5013143;28;20539;-72
2023/07/03 03:36:22;;;;;;;14.33;2.93;;;;;;;16.70;76.90;100301.81;5016456;28;20436;-73
2023/07/03 03:38:50;;;;;;;15.30;3.20;;;;;;;16.72;76.85;100289.38;5016906;28;20567;-73
2023/07/03 03:41:17;;;;;;;8.40;2.80;;;;;;;16.76;76.77;100293.03;5016590;28;20955;-72
2023/07/03 03:43:45;;;;;;;7.97;3.00;;;;;;;16.79;76.57;100289.59;5016872;28;20538;-72
2023/07/03 03:46:12;;;;;;;8.60;2.70;;;;;;;16.81;75.49;100300.97;5016780;28;20483;-72
2023/07/03 03:48:39;;;;;;;24.13;4.03;;;;;;;16.81;77.00;100295.50;5016757;28;20548;-72
2023/07/03 03:51:05;;;;;;;10.70;3.10;;;;;;;16.81;75.07;100298.22;5016492;28;20935;-72
2023/07/03 03:53:32;;;;;;;9.10;3.70;;;;;;;16.82;75.12;100296.28;5016458;28;20502;-72
2023/07/03 03:56:00;;;;;;;10.83;2.60;;;;;;;16.83;77.80;100293.22;5016682;28;20542;-73
2023/07/03 03:58:27;;;;;;;12.50;3.53;;;;;;;16.82;78.60;100299.03;5016247;28;20982;-73
2023/07/03 04:00:53;;;;;;;13.07;4.23;;;;;;;16.84;79.12;100299.50;5016316;28;20534;-72
2023/07/03 04:03:20;;;;;;;10.40;3.00;;;;;;;16.85;79.29;100290.91;5016564;28;20522;-72
2023/07/03 04:05:47;;;;;;;22.80;4.83;;;;;;;16.87;79.47;100293.31;5016685;28;20574;-72
2023/07/03 04:08:14;;;;;;;17.47;4.60;;;;;;;16.87;79.94;100294.13;5016434;28;20539;-72
2023/07/03 04:10:42;;;;;;;18.10;4.10;;;;;;;16.92;79.67;100295.00;5016096;28;20546;-72
2023/07/03 04:13:10;;;;;;;10.73;2.93;;;;;;;16.95;76.69;100291.56;5016486;28;20448;-72
2023/07/03 04:15:51;;;;;;;8.87;3.00;;;;;;;16.96;74.74;100296.69;5017360;28;20454;-72
2023/07/03 04:18:18;;;;;;;8.93;3.27;;;;;;;16.96;74.60;100288.47;5016144;28;20459;-72
2023/07/03 04:20:45;;;;;;;10.23;3.30;;;;;;;17.02;74.06;100289.00;5016195;28;20451;-72
2023/07/03 04:23:11;;;;;;;7.83;2.37;;;;;;;17.07;74.37;100296.97;5016174;28;20542;-72
2023/07/03 04:25:38;;;;;;;6.57;2.40;;;;;;;17.11;78.22;100289.63;5015755;28;20578;-73
2023/07/03 04:28:05;;;;;;;8.87;2.57;;;;;;;17.12;77.04;100293.94;5015920;28;20534;-73
2023/07/03 04:30:33;;;;;;;12.93;3.40;;;;;;;17.15;73.95;100285.03;5016087;28;20421;-73
2023/07/03 04:32:59;;;;;;;23.93;2.97;;;;;;;17.18;77.00;100286.25;5016073;28;20499;-72
2023/07/03 04:35:26;;;;;;;12.37;3.83;;;;;;;17.17;81.63;100290.94;5015929;28;20480;-72
2023/07/03 04:37:52;;;;;;;9.03;3.40;;;;;;;17.09;75.54;100291.94;5015510;28;20897;-73
2023/07/03 04:40:20;;;;;;;7.60;2.50;;;;;;;17.09;81.49;100281.00;5015554;28;20463;-72
2023/07/03 04:42:48;;;;;;;9.07;2.73;;;;;;;17.04;82.00;100281.22;5015709;28;20806;-72
2023/07/03 04:45:15;;;;;;;8.77;2.60;;;;;;;17.02;84.33;100289.00;5015688;28;20491;-72
2023/07/03 04:47:43;;;;;;;18.63;3.13;;;;;;;16.95;86.24;100283.34;5014542;28;20452;-73
2023/07/03 04:50:12;;;;;;;11.17;3.67;;;;;;;16.89;88.33;100282.81;5015305;28;20982;-73
2023/07/03 04:52:39;;;;;;;9.73;2.87;;;;;;;16.82;87.33;100282.59;5015648;28;20523;-73
2023/07/03 04:55:08;;;;;;;7.37;2.80;;;;;;;16.68;81.00;100288.47;5015677;28;20507;-72
2023/07/03 04:57:38;;;;;;;6.90;2.30;;;;;;;16.75;82.46;100285.97;5015539;28;20443;-73
2023/07/03 05:00:11;;;;;;;14.20;3.33;;;;;;;16.81;79.77;100284.56;5015348;28;20475;-73
2023/07/03 05:02:38;;;;;;;10.00;3.33;;;;;;;16.83;76.63;100284.22;5015532;28;20429;-72
2023/07/03 05:05:07;;;;;;;12.67;3.10;;;;;;;16.90;76.66;100285.19;5015385;28;20440;-73
2023/07/03 05:07:33;;;;;;;8.70;3.13;;;;;;;16.96;76.22;100276.75;5015345;28;20522;-73
2023/07/03 05:10:00;;;;;;;9.80;3.73;;;;;;;16.93;82.12;100278.22;5015246;28;20470;-73
2023/07/03 05:12:26;;;;;;;6.77;2.33;;;;;;;16.83;85.59;100276.81;5015358;28;20531;-72
2023/07/03 05:14:54;;;;;;;8.23;2.97;;;;;;;16.73;78.37;100277.28;5014899;28;20448;-72
2023/07/03 05:17:21;;;;;;;8.10;2.80;;;;;;;16.77;76.16;100283.66;5015130;28;20436;-72
2023/07/03 05:19:48;;;;;;;9.97;3.40;;;;;;;16.83;76.75;100279.53;5015040;28;20555;-72
2023/07/03 05:22:16;;;;;;;9.47;3.80;;;;;;;16.98;79.62;100279.91;5015098;28;20480;-76
2023/07/03 05:24:42;;;;;;;7.00;2.60;;;;;;;17.10;73.28;100275.16;5015055;28;20480;-71
2023/07/03 05:27:09;;;;;;;8.40;2.90;;;;;;;17.22;73.83;100276.19;5014617;28;20566;-72
2023/07/03 05:29:35;;;;;;;11.53;3.83;;;;;;;17.34;75.54;100279.66;5014755;28;20563;-72
2023/07/03 05:32:03;;;;;;;11.40;3.70;;;;;;;17.44;77.26;100274.78;5015184;28;20458;-72
2023/07/03 05:34:30;;;;;;;6.63;2.83;;;;;;;17.52;76.09;100279.28;5014858;28;20444;-71
2023/07/03 05:36:58;;;;;;;13.03;3.50;;;;;;;17.66;70.77;100282.34;5014813;28;20436;-72
2023/07/03 05:39:26;;;;;;;11.20;3.20;;;;;;;17.80;70.56;100290.94;5014733;28;20467;-72
2023/07/03 05:41:53;;;;;;;7.33;2.47;;;;;;;17.86;72.96;100289.50;5014836;28;20475;-72
2023/07/03 05:44:20;;;;;;;9.37;2.67;;;;;;;17.94;75.40;100295.16;5014269;28;20950;-72
2023/07/03 05:46:46;;;;;;;7.10;2.87;;;;;;;17.89;71.49;100297.03;5014579;28;20484;-71
2023/07/03 05:49:13;;;;;;;11.83;3.10;;;;;;;17.98;73.02;100290.56;5014492;28;20495;-72
2023/07/03 05:51:39;;;;;;;7.83;2.50;;;;;;;18.01;69.53;100307.06;5014583;28;20537;-71
2023/07/03 05:54:06;;;;;;;11.30;3.27;;;;;;;18.10;69.04;100301.38;5014531;28;20439;-71
2023/07/03 05:56:34;;;;;;;8.63;2.90;;;;;;;18.19;70.06;100307.44;5014167;28;20523;-72
2023/07/03 05:59:01;;;;;;;8.93;2.50;;;;;;;18.27;72.03;100306.44;5013689;28;21041;-71
2023/07/03 06:01:28;;;;;;;7.73;2.67;;;;;;;18.31;71.13;100306.53;5014328;28;20519;-72
2023/07/03 06:03:54;;;;;;;9.33;3.13;;;;;;;18.40;70.39;100307.88;5014290;28;20542;-72
2023/07/03 06:06:21;;;;;;;8.83;3.33;;;;;;;18.47;68.80;100312.75;5014162;28;20575;-72
2023/07/03 06:08:48;;;;;;;10.80;3.03;;;;;;;18.54;70.49;100312.88;5013842;28;21013;-70
2023/07/03 06:11:14;;;;;;;13.10;3.07;;;;;;;18.54;66.40;100309.34;5014167;28;20482;-71
2023/07/03 06:13:42;;;;;;;9.20;3.40;;;;;;;18.63;66.36;100315.38;5013865;28;20986;-71
2023/07/03 06:16:09;;;;;;;9.40;2.83;;;;;;;18.70;68.28;100312.03;5014110;28;20653;-71
2023/07/03 06:18:35;;;;;;;11.13;3.00;;;;;;;18.78;69.08;100309.06;5013670;28;20490;-71
2023/07/03 06:21:02;;;;;;;9.30;2.60;;;;;;;18.78;65.47;100311.81;5014023;28;20471;-70
2023/07/03 06:23:28;;;;;;;9.10;2.93;;;;;;;18.86;65.44;100318.25;5013919;28;20483;-71
2023/07/03 06:25:55;;;;;;;7.77;2.80;;;;;;;18.92;66.11;100315.97;5013507;28;20484;-71
2023/07/03 06:28:22;;;;;;;11.03;2.77;;;;;;;19.02;64.11;100315.38;5013407;28;21037;-71
2023/07/03 06:30:50;;;;;;;6.53;2.20;;;;;;;19.02;65.27;100315.38;5013895;28;20426;-71
2023/07/03 06:33:17;;;;;;;8.57;2.97;;;;;;;19.06;64.02;100318.97;5013445;28;20947;-71
2023/07/03 06:35:43;;;;;;;8.03;2.80;;;;;;;19.07;61.82;100312.31;5013800;28;20479;-71
2023/07/03 06:38:10;;;;;;;8.03;2.47;;;;;;;19.02;62.75;100320.88;5013618;28;20515;-72
2023/07/03 06:40:37;;;;;;;8.20;2.70;;;;;;;18.98;62.39;100325.50;5013346;28;20889;-71
2023/07/03 06:43:03;;;;;;;11.87;3.27;;;;;;;18.98;62.31;100330.97;5013355;28;20452;-71
2023/07/03 06:45:30;;;;;;;15.20;2.67;;;;;;;19.01;62.73;100330.25;5013442;28;20491;-70
2023/07/03 06:47:58;;;;;;;10.70;2.80;;;;;;;18.98;62.02;100330.97;5013543;28;20522;-71
2023/07/03 06:50:25;;;;;;;11.17;2.10;;;;;;;18.96;63.27;100327.81;5013401;28;20525;-71
2023/07/03 06:52:51;;;;;;;9.23;2.57;;;;;;;18.98;64.23;100333.72;5013537;28;20474;-72
2023/07/03 06:55:18;;;;;;;8.97;2.40;;;;;;;19.02;63.67;100337.34;5013166;28;20444;-71
2023/07/03 06:57:45;;;;;;;13.90;2.57;;;;;;;19.09;64.38;100334.72;5013451;28;20512;-71
2023/07/03 07:00:12;;;;;;;9.67;2.53;;;;;;;19.12;63.10;100333.97;5013016;28;20460;-71
2023/07/03 07:02:39;;;;;;;7.73;2.23;;;;;;;19.13;63.44;100330.09;5013375;28;20543;-71
2023/07/03 07:05:08;;;;;;;6.60;2.13;;;;;;;19.29;63.36;100330.75;5013069;28;20986;-70
2023/07/03 07:07:34;;;;;;;8.13;2.50;;;;;;;19.34;64.94;100335.94;5013054;28;21079;-74
2023/07/03 07:10:01;;;;;;;7.10;2.57;;;;;;;19.40;66.45;100333.69;5012586;28;20547;-74
2023/07/03 07:12:28;;;;;;;6.40;2.57;;;;;;;19.42;64.90;100339.59;5013043;28;20481;-73
2023/07/03 07:14:55;;;;;;;11.77;2.83;;;;;;;19.38;63.85;100338.75;5013531;28;20444;-72
2023/07/03 07:17:21;;;;;;;7.80;2.53;;;;;;;19.40;64.50;100345.47;5013309;28;20491;-72
2023/07/03 07:19:49;;;;;;;10.00;2.83;;;;;;;19.35;65.51;100331.28;5013201;28;20460;-73
2023/07/03 07:22:17;;;;;;;7.13;2.27;;;;;;;19.34;64.76;100344.19;5013235;28;20454;-72
2023/07/03 07:24:44;;;;;;;9.50;2.50;;;;;;;19.27;64.63;100335.03;5013169;28;20943;-73
2023/07/03 07:27:10;;;;;;;13.03;2.80;;;;;;;19.44;65.04;100345.53;5013256;28;20480;-72
2023/07/03 07:29:38;;;;;;;17.40;2.80;;;;;;;19.55;65.99;100348.47;5012569;28;20562;-73
2023/07/03 07:32:06;;;;;;;8.30;2.47;;;;;;;19.57;64.94;100340.66;5012781;28;20494;-73
2023/07/03 07:34:33;;;;;;;8.13;2.63;;;;;;;19.64;63.75;100338.03;5013158;28;20494;-73
2023/07/03 07:36:59;;;;;;;7.40;3.10;;;;;;;19.73;64.93;100346.81;5013128;28;20556;-73
2023/07/03 07:39:27;;;;;;;9.97;2.40;;;;;;;19.85;63.43;100343.88;5012690;28;20851;-73
2023/07/03 07:41:56;;;;;;;11.87;2.60;;;;;;;19.93;63.41;100335.75;5012770;28;20444;-73
2023/07/03 07:44:22;;;;;;;7.27;2.60;;;;;;;20.11;65.52;100336.78;5012970;28;20440;-72
2023/07/03 07:46:49;;;;;;;7.77;2.60;;;;;;;20.14;63.04;100336.03;5013024;28;20511;-73
2023/07/03 07:49:16;;;;;;;10.17;3.43;;;;;;;20.26;64.08;100338.56;5012614;28;21067;-72
2023/07/03 07:51:42;;;;;;;7.80;2.43;;;;;;;20.30;60.71;100339.41;5013010;28;20447;-73
2023/07/03 07:54:09;;;;;;;9.50;2.80;;;;;;;20.15;63.47;100338.41;5013180;28;20450;-72
2023/07/03 07:56:37;;;;;;;7.77;2.60;;;;;;;20.24;59.92;100340.09;5012593;28;20935;-72
2023/07/03 07:59:04;;;;;;;9.23;2.90;;;;;;;20.08;60.38;100330.06;5012564;28;20471;-72
2023/07/03 08:01:30;;;;;;;10.57;2.53;;;;;;;20.12;61.31;100339.16;5012848;28;20447;-73
2023/07/03 08:03:57;;;;;;;12.67;2.40;;;;;;;20.21;62.10;100335.34;5013111;28;20448;-73
2023/07/03 08:06:24;;;;;;;8.90;2.90;;;;;;;20.11;60.93;100334.03;5012773;28;20588;-73
2023/07/03 08:08:50;;;;;;;10.73;3.13;;;;;;;20.22;61.91;100331.41;5012803;28;20835;-73
2023/07/03 08:11:17;;;;;;;6.80;2.63;;;;;;;20.15;61.42;100326.63;5012812;28;20444;-72
2023/07/03 08:13:45;;;;;;;7.63;2.03;;;;;;;20.20;61.57;100329.06;5012478;28;21022;-72
2023/07/03 08:16:13;;;;;;;6.13;2.33;;;;;;;20.21;58.91;100333.38;5012730;28;20547;-73
2023/07/03 08:18:40;;;;;;;8.10;2.53;;;;;;;20.20;61.91;100331.00;5012592;28;20499;-73
2023/07/03 08:21:06;;;;;;;6.00;2.00;;;;;;;20.26;60.82;100337.75;5013900;28;20470;-74
2023/07/03 08:23:33;;;;;;;8.63;2.30;;;;;;;20.32;61.04;100328.81;5016139;28;20467;-73
2023/07/03 08:26:01;;;;;;;7.17;2.60;;;;;;;20.21;59.07;100325.13;5016005;28;20534;-73
2023/07/03 08:28:28;;;;;;;7.73;2.43;;;;;;;20.11;63.45;100320.28;5015684;28;20486;-73
2023/07/03 08:30:57;;;;;;;8.33;2.50;;;;;;;20.01;61.24;100321.72;5016259;28;20433;-74
2023/07/03 08:33:24;;;;;;;7.90;2.70;;;;;;;20.03;60.56;100324.09;5015659;28;20448;-74
2023/07/03 08:35:51;;;;;;;10.70;3.20;;;;;;;20.05;61.40;100330.78;5015987;28;20448;-74
2023/07/03 08:38:17;;;;;;;12.43;2.50;;;;;;;20.06;61.69;100326.13;5015980;28;20468;-74
2023/07/03 08:40:44;;;;;;;6.17;2.00;;;;;;;20.18;59.57;100325.88;5015942;28;20527;-73
2023/07/03 08:43:17;;;;;;;14.70;2.33;;;;;;;20.25;61.02;100325.97;5015484;28;20959;-74
2023/07/03 08:45:46;;;;;;;7.93;2.00;;;;;;;20.34;59.37;100331.97;5015826;28;20431;-74
2023/07/03 08:48:17;;;;;;;15.17;2.37;;;;;;;20.45;55.68;100345.06;5015587;28;20867;-75
2023/07/03 08:50:47;;;;;;;7.67;2.20;;;;;;;20.54;54.78;100342.84;5015427;28;20430;-74
2023/07/03 08:53:19;;;;;;;9.63;2.57;;;;;;;20.60;54.04;100339.41;5015626;28;20510;-74
2023/07/03 08:55:56;;;;;;;7.30;1.90;;;;;;;20.63;56.46;100337.88;5015557;28;20433;-74
2023/07/03 08:58:22;;;;;;;7.50;2.20;;;;;;;20.61;49.22;100334.69;5015516;28;20547;-72
2023/07/03 09:00:58;;;;;;;11.47;2.37;;;;;;;20.75;50.65;100339.56;5015478;28;20534;-74
2023/07/03 09:03:35;;;;;;;6.40;1.93;;;;;;;20.91;51.82;100351.97;5015592;28;20514;-75
2023/07/03 09:06:10;;;;;;;7.07;2.10;;;;;;;21.06;50.49;100349.34;5015378;28;20424;-72
2023/07/03 09:08:47;;;;;;;8.70;2.77;;;;;;;21.12;50.38;100350.63;5015262;28;20464;-73
2023/07/03 09:11:18;;;;;;;7.30;2.03;;;;;;;21.37;50.46;100354.41;5015051;28;20970;-73
2023/07/03 09:13:49;;;;;;;9.20;2.60;;;;;;;21.66;49.81;100351.91;5015331;28;20451;-74
2023/07/03 09:16:21;;;;;;;6.30;2.03;;;;;;;21.89;48.25;100349.69;5015377;28;20431;-73
2023/07/03 09:18:52;;;;;;;8.17;2.37;;;;;;;21.61;45.58;100358.56;5015180;28;20942;-75
2023/07/03 09:21:20;;;;;;;17.80;2.10;;;;;;;21.53;46.17;100356.91;5015223;28;20436;-75
2023/07/03 09:23:52;;;;;;;10.13;2.00;;;;;;;21.64;46.27;100354.22;5015412;28;20543;-74
2023/07/03 09:26:24;;;;;;;6.93;2.17;;;;;;;21.82;45.83;100360.66;5014869;28;20439;-73
2023/07/03 09:28:57;;;;;;;12.67;2.77;;;;;;;21.81;44.98;100361.84;5015645;28;20578;-73
2023/07/03 09:31:24;;;;;;;8.50;2.40;;;;;;;21.70;44.89;100361.00;5014882;28;20479;-73
2023/07/03 09:33:52;;;;;;;6.93;1.70;;;;;;;21.63;45.93;100371.97;5013931;28;20938;-73
2023/07/03 09:36:27;;;;;;;8.90;2.30;;;;;;;21.60;44.55;100372.72;5014847;28;20451;-74
2023/07/03 09:38:54;;;;;;;7.20;2.00;;;;;;;21.61;45.66;100366.03;5014534;28;20467;-73
2023/07/03 09:41:29;;;;;;;7.63;1.70;;;;;;;21.76;46.15;100370.50;5014761;28;20550;-73
2023/07/03 09:43:56;;;;;;;6.27;1.87;;;;;;;21.87;44.84;100385.16;5014413;28;20451;-74
2023/07/03 09:46:24;;;;;;;8.63;1.90;;;;;;;21.76;45.47;100375.22;5014598;28;20444;-74
2023/07/03 09:48:52;;;;;;;7.23;2.40;;;;;;;21.66;46.10;100376.72;5014466;28;20526;-74
2023/07/03 09:51:28;;;;;;;10.83;2.10;;;;;;;21.59;45.54;100390.44;5014452;28;20449;-74
2023/07/03 09:53:56;;;;;;;7.00;2.13;;;;;;;21.53;46.30;100391.97;5014253;28;20957;-74
2023/07/03 09:56:25;;;;;;;6.60;1.60;;;;;;;21.50;45.11;100381.69;5014386;28;21000;-74
2023/07/03 09:58:54;;;;;;;6.00;1.80;;;;;;;21.46;47.53;100395.44;5014696;28;20460;-74
2023/07/03 10:01:23;;;;;;;5.67;1.70;;;;;;;21.56;47.66;100391.19;5014041;28;20514;-74
2023/07/03 10:04:03;;;;;;;6.83;1.70;;;;;;;21.73;45.51;100385.03;5014350;28;20452;-74
2023/07/03 10:06:29;;;;;;;6.77;1.70;;;;;;;21.96;45.72;100392.28;5014223;28;20435;-74
2023/07/03 10:09:01;;;;;;;5.47;1.67;;;;;;;22.19;44.91;100395.66;5014235;28;20579;-74
2023/07/03 10:11:34;;;;;;;6.40;1.80;;;;;;;22.45;45.71;100399.34;5014195;28;20459;-75
2023/07/03 10:14:01;;;;;;;6.40;1.90;;;;;;;22.41;42.83;100391.84;5014333;28;20808;-75
2023/07/03 10:16:28;;;;;;;8.40;1.67;;;;;;;22.43;43.58;100405.25;5014122;28;20455;-74
2023/07/03 10:18:58;;;;;;;7.37;1.97;;;;;;;22.31;43.14;100400.84;5015397;28;20559;-74
2023/07/03 10:21:27;;;;;;;17.30;1.53;;;;;;;22.32;45.75;100396.91;5013799;28;20515;-74
2023/07/03 10:23:54;;;;;;;4.93;1.40;;;;;;;22.40;43.76;100401.31;5013789;28;20888;-74
2023/07/03 10:26:25;;;;;;;5.63;1.43;;;;;;;22.55;45.07;100404.13;5014170;28;20539;-75
2023/07/03 10:28:57;;;;;;;9.20;1.27;;;;;;;22.61;43.63;100397.06;5013478;28;20558;-75
2023/07/03 10:31:31;;;;;;;6.63;2.03;;;;;;;22.49;43.41;100394.63;5013894;28;20433;-74
2023/07/03 10:34:04;;;;;;;4.77;1.27;;;;;;;22.44;44.53;100395.00;5014028;28;20523;-75
2023/07/03 10:36:35;;;;;;;6.30;1.53;;;;;;;22.19;43.49;100406.69;5013864;28;20817;-75
2023/07/03 10:39:07;;;;;;;5.23;1.50;;;;;;;22.13;43.46;100406.25;5013369;28;21065;-75
2023/07/03 10:41:38;;;;;;;7.60;1.60;;;;;;;22.20;43.64;100400.00;5013716;28;20428;-76
2023/07/03 10:44:09;;;;;;;7.50;1.80;;;;;;;22.19;44.04;100401.16;5013044;28;20429;-75
2023/07/03 10:46:39;;;;;;;7.37;1.63;;;;;;;22.28;43.22;100398.84;5013651;28;20518;-75
2023/07/03 10:49:09;;;;;;;10.03;1.93;;;;;;;22.24;42.86;100422.09;5013544;28;20570;-76
2023/07/03 10:51:45;;;;;;;6.33;2.00;;;;;;;22.03;43.07;100419.94;5013733;28;20432;-75
2023/07/03 10:54:17;;;;;;;9.23;2.30;;;;;;;21.73;43.08;100418.13;5013531;28;20459;-76
2023/07/03 10:56:46;;;;;;;10.97;1.70;;;;;;;21.50;45.08;100406.50;5013452;28;20507;-75
2023/07/03 10:59:21;;;;;;;6.50;1.73;;;;;;;21.48;45.16;100428.94;5012985;28;20468;-74
2023/07/03 11:01:56;;;;;;;7.00;2.00;;;;;;;21.39;45.30;100411.91;5013264;28;20432;-75
2023/07/03 11:04:27;;;;;;;7.27;2.07;;;;;;;;;;5013109;28;20910;-75
2023/07/03 11:07:05;;;;;;;8.87;1.97;;;;;;;21.26;47.35;100422.38;5013342;28;20428;-72
2023/07/03 11:09:42;;;;;;;8.30;1.70;;;;;;;21.41;47.29;100421.38;5013422;28;20557;-73
2023/07/03 11:12:20;;;;;;;6.20;2.00;;;;;;;21.63;46.98;100419.63;5013426;28;20433;-71
2023/07/03 11:14:56;;;;;;;7.43;1.53;;;;;;;21.86;46.88;100419.41;5013363;28;20438;-72
2023/07/03 11:17:31;;;;;;;8.93;1.63;;;;;;;22.29;46.89;100422.50;5013282;28;20523;-71
2023/07/03 11:20:08;;;;;;;14.53;2.27;;;;;;;22.40;45.81;100411.53;5013271;28;20518;-72
2023/07/03 11:22:43;;;;;;;14.47;1.93;;;;;;;22.26;46.81;100417.75;5013307;28;20463;-72
2023/07/03 11:25:20;;;;;;;6.00;1.87;;;;;;;21.97;47.53;100410.44;5012999;28;20470;-71
2023/07/03 11:27:56;;;;;;;9.70;2.40;;;;;;;21.84;47.55;100419.00;5012841;28;20981;-72
2023/07/03 11:30:25;;;;;;;5.80;1.73;;;;;;;21.84;47.76;100421.78;5013339;28;20526;-73